sensor_id;sensor_type;location;lat;lon;timestamp;P1;durP1;ratioP1;P2;durP2;ratioP2
48209;SDS011;33999;52.252;9.616;2022-07-22T00:02:07;6.57;;;3.95;;
48209;SDS011;33999;52.252;9.616;2022-07-22T00:05:09;5.60;;;3.70;;
48209;SDS011;33999;52.252;9.616;2022-07-22T00:08:12;5.95;;;4.00;;
48209;SDS011;33999;52.252;9.616;2022-07-22T00:11:14;6.20;;;4.18;;
48209;SDS011;33999;52.252;9.616;2022-07-22T00:14:15;6.00;;;4.30;;
48209;SDS011;33999;52.252;9.616;2022-07-22T00:17:17;6.78;;;4.20;;
48209;SDS011;33999;52.252;9.616;2022-07-22T00:20:19;7.07;;;4.45;;
48209;SDS011;33999;52.252;9.616;2022-07-22T00:23:21;10.95;;;5.18;;
48209;SDS011;33999;52.252;9.616;2022-07-22T00:26:22;7.85;;;4.80;;
48209;SDS011;33999;52.252;9.616;2022-07-22T00:29:24;6.90;;;4.30;;
48209;SDS011;33999;52.252;9.616;2022-07-22T00:32:26;7.05;;;4.13;;
48209;SDS011;33999;52.252;9.616;2022-07-22T00:35:29;6.28;;;4.20;;
48209;SDS011;33999;52.252;9.616;2022-07-22T00:38:31;7.10;;;4.90;;
48209;SDS011;33999;52.252;9.616;2022-07-22T00:41:33;7.43;;;5.25;;
48209;SDS011;33999;52.252;9.616;2022-07-22T00:44:38;8.20;;;5.22;;
48209;SDS011;33999;52.252;9.616;2022-07-22T00:47:40;8.52;;;5.35;;
48209;SDS011;33999;52.252;9.616;2022-07-22T00:50:42;8.25;;;4.97;;
48209;SDS011;33999;52.252;9.616;2022-07-22T00:53:46;9.65;;;5.28;;
48209;SDS011;33999;52.252;9.616;2022-07-22T00:56:48;7.18;;;4.78;;
48209;SDS011;33999;52.252;9.616;2022-07-22T00:59:50;6.35;;;4.30;;
48209;SDS011;33999;52.252;9.616;2022-07-22T01:02:51;8.13;;;5.03;;
48209;SDS011;33999;52.252;9.616;2022-07-22T01:05:53;7.30;;;4.97;;
48209;SDS011;33999;52.252;9.616;2022-07-22T01:08:55;8.30;;;4.57;;
48209;SDS011;33999;52.252;9.616;2022-07-22T01:11:58;6.93;;;4.68;;
48209;SDS011;33999;52.252;9.616;2022-07-22T01:15:00;7.28;;;4.35;;
48209;SDS011;33999;52.252;9.616;2022-07-22T01:18:02;7.25;;;4.43;;
48209;SDS011;33999;52.252;9.616;2022-07-22T01:21:06;7.25;;;4.38;;
48209;SDS011;33999;52.252;9.616;2022-07-22T01:24:08;8.65;;;4.55;;
48209;SDS011;33999;52.252;9.616;2022-07-22T01:27:10;7.15;;;4.47;;
48209;SDS011;33999;52.252;9.616;2022-07-22T01:30:12;6.80;;;4.07;;
48209;SDS011;33999;52.252;9.616;2022-07-22T01:33:14;6.93;;;4.60;;
48209;SDS011;33999;52.252;9.616;2022-07-22T01:36:16;7.95;;;4.45;;
48209;SDS011;33999;52.252;9.616;2022-07-22T01:39:19;7.53;;;4.32;;
48209;SDS011;33999;52.252;9.616;2022-07-22T01:42:20;7.22;;;4.55;;
48209;SDS011;33999;52.252;9.616;2022-07-22T01:45:22;7.55;;;5.15;;
48209;SDS011;33999;52.252;9.616;2022-07-22T01:48:24;6.43;;;4.63;;
48209;SDS011;33999;52.252;9.616;2022-07-22T01:51:27;6.93;;;4.80;;
48209;SDS011;33999;52.252;9.616;2022-07-22T01:54:29;7.57;;;4.45;;
48209;SDS011;33999;52.252;9.616;2022-07-22T01:57:30;5.93;;;4.18;;
48209;SDS011;33999;52.252;9.616;2022-07-22T02:00:34;6.97;;;4.30;;
48209;SDS011;33999;52.252;9.616;2022-07-22T02:03:39;7.50;;;4.40;;
48209;SDS011;33999;52.252;9.616;2022-07-22T02:06:42;7.45;;;5.10;;
48209;SDS011;33999;52.252;9.616;2022-07-22T02:09:45;8.50;;;5.95;;
48209;SDS011;33999;52.252;9.616;2022-07-22T02:12:47;9.20;;;5.90;;
48209;SDS011;33999;52.252;9.616;2022-07-22T02:15:53;8.93;;;6.10;;
48209;SDS011;33999;52.252;9.616;2022-07-22T02:18:55;12.68;;;6.13;;
48209;SDS011;33999;52.252;9.616;2022-07-22T02:22:00;10.77;;;6.00;;
48209;SDS011;33999;52.252;9.616;2022-07-22T02:25:02;9.68;;;5.50;;
48209;SDS011;33999;52.252;9.616;2022-07-22T02:28:04;8.40;;;5.55;;
48209;SDS011;33999;52.252;9.616;2022-07-22T02:31:06;9.98;;;5.75;;
48209;SDS011;33999;52.252;9.616;2022-07-22T02:34:08;9.70;;;5.10;;
48209;SDS011;33999;52.252;9.616;2022-07-22T02:37:11;10.30;;;5.30;;
48209;SDS011;33999;52.252;9.616;2022-07-22T02:40:12;7.45;;;4.22;;
48209;SDS011;33999;52.252;9.616;2022-07-22T02:43:15;8.60;;;4.57;;
48209;SDS011;33999;52.252;9.616;2022-07-22T02:46:20;8.73;;;4.32;;
48209;SDS011;33999;52.252;9.616;2022-07-22T02:49:24;10.13;;;4.70;;
48209;SDS011;33999;52.252;9.616;2022-07-22T02:52:26;7.85;;;5.00;;
48209;SDS011;33999;52.252;9.616;2022-07-22T02:55:31;10.10;;;5.13;;
48209;SDS011;33999;52.252;9.616;2022-07-22T02:58:38;10.05;;;5.80;;
48209;SDS011;33999;52.252;9.616;2022-07-22T03:01:40;10.82;;;5.30;;
48209;SDS011;33999;52.252;9.616;2022-07-22T03:04:42;9.05;;;5.60;;
48209;SDS011;33999;52.252;9.616;2022-07-22T03:07:44;9.80;;;5.50;;
48209;SDS011;33999;52.252;9.616;2022-07-22T03:10:47;8.85;;;5.13;;
48209;SDS011;33999;52.252;9.616;2022-07-22T03:13:49;8.30;;;5.50;;
48209;SDS011;33999;52.252;9.616;2022-07-22T03:16:52;7.80;;;5.10;;
48209;SDS011;33999;52.252;9.616;2022-07-22T03:19:55;8.35;;;4.97;;
48209;SDS011;33999;52.252;9.616;2022-07-22T03:22:57;8.82;;;5.47;;
48209;SDS011;33999;52.252;9.616;2022-07-22T03:25:58;11.00;;;5.40;;
48209;SDS011;33999;52.252;9.616;2022-07-22T03:29:00;8.57;;;4.72;;
48209;SDS011;33999;52.252;9.616;2022-07-22T03:32:03;7.40;;;4.85;;
48209;SDS011;33999;52.252;9.616;2022-07-22T03:35:14;8.48;;;4.57;;
48209;SDS011;33999;52.252;9.616;2022-07-22T03:38:17;7.05;;;4.35;;
48209;SDS011;33999;52.252;9.616;2022-07-22T03:41:20;6.90;;;4.68;;
48209;SDS011;33999;52.252;9.616;2022-07-22T03:44:22;9.15;;;4.15;;
48209;SDS011;33999;52.252;9.616;2022-07-22T03:47:24;7.47;;;4.32;;
48209;SDS011;33999;52.252;9.616;2022-07-22T03:50:26;8.73;;;4.20;;
48209;SDS011;33999;52.252;9.616;2022-07-22T03:53:29;8.52;;;4.65;;
48209;SDS011;33999;52.252;9.616;2022-07-22T03:56:31;6.22;;;3.90;;
48209;SDS011;33999;52.252;9.616;2022-07-22T03:59:33;7.40;;;4.13;;
48209;SDS011;33999;52.252;9.616;2022-07-22T04:02:37;6.60;;;4.38;;
48209;SDS011;33999;52.252;9.616;2022-07-22T04:05:39;7.18;;;4.03;;
48209;SDS011;33999;52.252;9.616;2022-07-22T04:08:42;6.35;;;4.05;;
48209;SDS011;33999;52.252;9.616;2022-07-22T04:11:44;6.93;;;3.78;;
48209;SDS011;33999;52.252;9.616;2022-07-22T04:14:47;6.13;;;3.67;;
48209;SDS011;33999;52.252;9.616;2022-07-22T04:17:49;5.90;;;3.83;;
48209;SDS011;33999;52.252;9.616;2022-07-22T04:20:51;6.50;;;3.90;;
48209;SDS011;33999;52.252;9.616;2022-07-22T04:24:04;6.90;;;3.95;;
48209;SDS011;33999;52.252;9.616;2022-07-22T04:27:07;8.60;;;4.38;;
48209;SDS011;33999;52.252;9.616;2022-07-22T04:30:10;8.38;;;4.00;;
48209;SDS011;33999;52.252;9.616;2022-07-22T04:33:14;6.90;;;3.80;;
48209;SDS011;33999;52.252;9.616;2022-07-22T04:36:16;6.53;;;3.95;;
48209;SDS011;33999;52.252;9.616;2022-07-22T04:39:19;6.35;;;3.70;;
48209;SDS011;33999;52.252;9.616;2022-07-22T04:42:29;8.20;;;3.42;;
48209;SDS011;33999;52.252;9.616;2022-07-22T04:45:31;6.25;;;3.55;;
48209;SDS011;33999;52.252;9.616;2022-07-22T04:48:34;5.82;;;3.30;;
48209;SDS011;33999;52.252;9.616;2022-07-22T04:51:36;4.93;;;3.10;;
48209;SDS011;33999;52.252;9.616;2022-07-22T04:54:42;5.43;;;3.10;;
48209;SDS011;33999;52.252;9.616;2022-07-22T04:57:44;6.45;;;3.63;;
48209;SDS011;33999;52.252;9.616;2022-07-22T05:00:46;5.35;;;3.10;;
48209;SDS011;33999;52.252;9.616;2022-07-22T05:03:49;7.53;;;3.45;;
48209;SDS011;33999;52.252;9.616;2022-07-22T05:06:52;7.45;;;3.80;;
48209;SDS011;33999;52.252;9.616;2022-07-22T05:09:55;7.63;;;3.28;;
48209;SDS011;33999;52.252;9.616;2022-07-22T05:12:57;6.07;;;3.13;;
48209;SDS011;33999;52.252;9.616;2022-07-22T05:16:06;7.22;;;3.20;;
48209;SDS011;33999;52.252;9.616;2022-07-22T05:19:10;4.85;;;2.45;;
48209;SDS011;33999;52.252;9.616;2022-07-22T05:22:13;6.38;;;2.70;;
48209;SDS011;33999;52.252;9.616;2022-07-22T05:25:15;5.82;;;2.25;;
48209;SDS011;33999;52.252;9.616;2022-07-22T05:28:18;5.13;;;2.35;;
48209;SDS011;33999;52.252;9.616;2022-07-22T05:31:22;3.30;;;1.80;;
48209;SDS011;33999;52.252;9.616;2022-07-22T05:34:24;4.15;;;2.00;;
48209;SDS011;33999;52.252;9.616;2022-07-22T05:37:28;5.68;;;2.08;;
48209;SDS011;33999;52.252;9.616;2022-07-22T05:40:31;5.22;;;2.00;;
48209;SDS011;33999;52.252;9.616;2022-07-22T05:43:33;6.00;;;1.80;;
48209;SDS011;33999;52.252;9.616;2022-07-22T05:46:38;5.28;;;2.03;;
48209;SDS011;33999;52.252;9.616;2022-07-22T05:49:42;5.53;;;1.90;;
48209;SDS011;33999;52.252;9.616;2022-07-22T05:52:46;3.63;;;1.83;;
48209;SDS011;33999;52.252;9.616;2022-07-22T05:55:48;4.40;;;1.75;;
48209;SDS011;33999;52.252;9.616;2022-07-22T05:58:50;6.65;;;2.05;;
48209;SDS011;33999;52.252;9.616;2022-07-22T06:01:53;4.65;;;2.30;;
48209;SDS011;33999;52.252;9.616;2022-07-22T06:05:24;5.88;;;3.20;;
48209;SDS011;33999;52.252;9.616;2022-07-22T06:08:44;9.18;;;3.30;;
48209;SDS011;33999;52.252;9.616;2022-07-22T06:11:53;7.22;;;3.53;;
48209;SDS011;33999;52.252;9.616;2022-07-22T06:14:55;6.57;;;3.28;;
48209;SDS011;33999;52.252;9.616;2022-07-22T06:17:57;9.18;;;3.45;;
48209;SDS011;33999;52.252;9.616;2022-07-22T06:20:59;7.10;;;3.50;;
48209;SDS011;33999;52.252;9.616;2022-07-22T06:24:01;10.35;;;3.47;;
48209;SDS011;33999;52.252;9.616;2022-07-22T06:27:03;9.95;;;3.20;;
48209;SDS011;33999;52.252;9.616;2022-07-22T06:30:06;8.70;;;2.92;;
48209;SDS011;33999;52.252;9.616;2022-07-22T06:33:08;5.72;;;2.00;;
48209;SDS011;33999;52.252;9.616;2022-07-22T06:36:10;5.05;;;1.60;;
48209;SDS011;33999;52.252;9.616;2022-07-22T06:39:15;5.85;;;1.70;;
48209;SDS011;33999;52.252;9.616;2022-07-22T06:42:38;5.10;;;1.75;;
48209;SDS011;33999;52.252;9.616;2022-07-22T06:45:43;5.28;;;1.75;;
48209;SDS011;33999;52.252;9.616;2022-07-22T06:48:52;5.45;;;1.70;;
48209;SDS011;33999;52.252;9.616;2022-07-22T06:51:54;5.57;;;1.70;;
48209;SDS011;33999;52.252;9.616;2022-07-22T06:54:57;4.20;;;1.70;;
48209;SDS011;33999;52.252;9.616;2022-07-22T06:58:03;5.22;;;1.77;;
48209;SDS011;33999;52.252;9.616;2022-07-22T07:01:05;6.65;;;1.70;;
48209;SDS011;33999;52.252;9.616;2022-07-22T07:04:22;3.58;;;1.70;;
48209;SDS011;33999;52.252;9.616;2022-07-22T07:07:24;4.78;;;1.77;;
48209;SDS011;33999;52.252;9.616;2022-07-22T07:10:32;7.07;;;2.00;;
48209;SDS011;33999;52.252;9.616;2022-07-22T07:13:40;4.13;;;1.70;;
48209;SDS011;33999;52.252;9.616;2022-07-22T07:16:42;4.38;;;1.80;;
48209;SDS011;33999;52.252;9.616;2022-07-22T07:19:45;5.72;;;2.00;;
48209;SDS011;33999;52.252;9.616;2022-07-22T07:22:46;4.78;;;1.60;;
48209;SDS011;33999;52.252;9.616;2022-07-22T07:25:48;7.45;;;1.80;;
48209;SDS011;33999;52.252;9.616;2022-07-22T07:28:51;5.57;;;1.80;;
48209;SDS011;33999;52.252;9.616;2022-07-22T07:32:07;5.30;;;2.03;;
48209;SDS011;33999;52.252;9.616;2022-07-22T07:35:09;4.30;;;1.80;;
48209;SDS011;33999;52.252;9.616;2022-07-22T07:38:11;4.45;;;1.90;;
48209;SDS011;33999;52.252;9.616;2022-07-22T07:41:15;4.78;;;1.90;;
48209;SDS011;33999;52.252;9.616;2022-07-22T07:44:18;4.00;;;1.67;;
48209;SDS011;33999;52.252;9.616;2022-07-22T07:47:20;6.55;;;1.98;;
48209;SDS011;33999;52.252;9.616;2022-07-22T07:50:23;5.72;;;1.98;;
48209;SDS011;33999;52.252;9.616;2022-07-22T07:53:26;7.30;;;2.25;;
48209;SDS011;33999;52.252;9.616;2022-07-22T07:56:28;5.57;;;2.08;;
48209;SDS011;33999;52.252;9.616;2022-07-22T07:59:30;6.30;;;2.10;;
48209;SDS011;33999;52.252;9.616;2022-07-22T08:02:35;9.27;;;2.60;;
48209;SDS011;33999;52.252;9.616;2022-07-22T08:05:38;4.57;;;2.00;;
48209;SDS011;33999;52.252;9.616;2022-07-22T08:08:47;4.57;;;1.80;;
48209;SDS011;33999;52.252;9.616;2022-07-22T08:11:54;5.72;;;1.98;;
48209;SDS011;33999;52.252;9.616;2022-07-22T08:15:26;8.43;;;1.90;;
48209;SDS011;33999;52.252;9.616;2022-07-22T08:18:29;5.95;;;1.98;;
48209;SDS011;33999;52.252;9.616;2022-07-22T08:21:31;6.35;;;2.13;;
48209;SDS011;33999;52.252;9.616;2022-07-22T08:24:49;9.70;;;2.08;;
48209;SDS011;33999;52.252;9.616;2022-07-22T08:27:53;8.10;;;2.20;;
48209;SDS011;33999;52.252;9.616;2022-07-22T08:30:56;5.30;;;1.83;;
48209;SDS011;33999;52.252;9.616;2022-07-22T08:33:58;7.60;;;1.73;;
48209;SDS011;33999;52.252;9.616;2022-07-22T08:37:01;7.13;;;1.90;;
48209;SDS011;33999;52.252;9.616;2022-07-22T08:40:04;6.22;;;1.90;;
48209;SDS011;33999;52.252;9.616;2022-07-22T08:43:08;8.05;;;2.13;;
48209;SDS011;33999;52.252;9.616;2022-07-22T08:46:10;6.47;;;1.95;;
48209;SDS011;33999;52.252;9.616;2022-07-22T08:49:35;7.03;;;2.10;;
48209;SDS011;33999;52.252;9.616;2022-07-22T08:52:57;7.78;;;2.08;;
48209;SDS011;33999;52.252;9.616;2022-07-22T08:55:59;7.72;;;2.10;;
48209;SDS011;33999;52.252;9.616;2022-07-22T08:59:01;4.72;;;1.70;;
48209;SDS011;33999;52.252;9.616;2022-07-22T09:02:09;5.20;;;1.80;;
48209;SDS011;33999;52.252;9.616;2022-07-22T09:05:16;4.68;;;1.90;;
48209;SDS011;33999;52.252;9.616;2022-07-22T09:08:49;7.07;;;2.10;;
48209;SDS011;33999;52.252;9.616;2022-07-22T09:12:19;6.95;;;2.22;;
48209;SDS011;33999;52.252;9.616;2022-07-22T09:15:45;4.53;;;1.92;;
48209;SDS011;33999;52.252;9.616;2022-07-22T09:19:11;5.13;;;1.88;;
48209;SDS011;33999;52.252;9.616;2022-07-22T09:22:13;7.55;;;1.80;;
48209;SDS011;33999;52.252;9.616;2022-07-22T09:25:36;5.88;;;2.00;;
48209;SDS011;33999;52.252;9.616;2022-07-22T09:28:59;5.30;;;1.70;;
48209;SDS011;33999;52.252;9.616;2022-07-22T09:32:03;5.13;;;1.70;;
48209;SDS011;33999;52.252;9.616;2022-07-22T09:35:31;6.03;;;1.80;;
48209;SDS011;33999;52.252;9.616;2022-07-22T09:38:34;4.43;;;1.63;;
48209;SDS011;33999;52.252;9.616;2022-07-22T09:41:37;5.95;;;1.52;;
48209;SDS011;33999;52.252;9.616;2022-07-22T09:44:58;4.03;;;1.52;;
48209;SDS011;33999;52.252;9.616;2022-07-22T09:48:12;5.22;;;1.70;;
48209;SDS011;33999;52.252;9.616;2022-07-22T09:51:31;5.07;;;1.80;;
48209;SDS011;33999;52.252;9.616;2022-07-22T09:54:44;4.65;;;1.73;;
48209;SDS011;33999;52.252;9.616;2022-07-22T09:57:47;3.97;;;1.42;;
48209;SDS011;33999;52.252;9.616;2022-07-22T10:00:50;3.40;;;1.35;;
48209;SDS011;33999;52.252;9.616;2022-07-22T10:03:55;3.28;;;1.50;;
48209;SDS011;33999;52.252;9.616;2022-07-22T10:06:59;5.75;;;1.40;;
48209;SDS011;33999;52.252;9.616;2022-07-22T10:10:08;4.72;;;1.60;;
48209;SDS011;33999;52.252;9.616;2022-07-22T10:13:11;3.55;;;1.63;;
48209;SDS011;33999;52.252;9.616;2022-07-22T10:16:14;7.30;;;1.70;;
48209;SDS011;33999;52.252;9.616;2022-07-22T10:19:17;4.65;;;1.83;;
48209;SDS011;33999;52.252;9.616;2022-07-22T10:23:05;5.10;;;1.75;;
48209;SDS011;33999;52.252;9.616;2022-07-22T10:28:54;3.20;;;1.42;;
48209;SDS011;33999;52.252;9.616;2022-07-22T10:32:40;4.43;;;1.60;;
48209;SDS011;33999;52.252;9.616;2022-07-22T10:42:09;4.18;;;1.50;;
48209;SDS011;33999;52.252;9.616;2022-07-22T10:45:11;4.00;;;1.65;;
48209;SDS011;33999;52.252;9.616;2022-07-22T10:48:17;4.13;;;1.80;;
48209;SDS011;33999;52.252;9.616;2022-07-22T10:51:19;6.10;;;1.77;;
48209;SDS011;33999;52.252;9.616;2022-07-22T10:54:22;4.53;;;1.88;;
48209;SDS011;33999;52.252;9.616;2022-07-22T10:57:38;7.55;;;1.92;;
48209;SDS011;33999;52.252;9.616;2022-07-22T11:00:40;8.43;;;2.00;;
48209;SDS011;33999;52.252;9.616;2022-07-22T11:03:43;9.60;;;2.10;;
48209;SDS011;33999;52.252;9.616;2022-07-22T11:06:46;7.97;;;2.30;;
48209;SDS011;33999;52.252;9.616;2022-07-22T11:09:52;5.95;;;2.10;;
48209;SDS011;33999;52.252;9.616;2022-07-22T11:12:54;5.25;;;2.10;;
48209;SDS011;33999;52.252;9.616;2022-07-22T11:15:56;5.25;;;1.80;;
48209;SDS011;33999;52.252;9.616;2022-07-22T11:18:59;5.63;;;2.20;;
48209;SDS011;33999;52.252;9.616;2022-07-22T11:22:10;5.22;;;2.20;;
48209;SDS011;33999;52.252;9.616;2022-07-22T11:25:15;6.60;;;2.10;;
48209;SDS011;33999;52.252;9.616;2022-07-22T11:31:32;5.15;;;2.10;;
48209;SDS011;33999;52.252;9.616;2022-07-22T11:34:38;4.60;;;2.20;;
48209;SDS011;33999;52.252;9.616;2022-07-22T11:37:54;11.57;;;1.88;;
48209;SDS011;33999;52.252;9.616;2022-07-22T11:40:56;6.68;;;2.40;;
48209;SDS011;33999;52.252;9.616;2022-07-22T11:44:02;7.95;;;2.40;;
48209;SDS011;33999;52.252;9.616;2022-07-22T11:47:18;7.53;;;2.78;;
48209;SDS011;33999;52.252;9.616;2022-07-22T11:50:32;9.85;;;2.70;;
48209;SDS011;33999;52.252;9.616;2022-07-22T11:53:57;7.32;;;2.50;;
48209;SDS011;33999;52.252;9.616;2022-07-22T11:57:05;6.80;;;2.70;;
48209;SDS011;33999;52.252;9.616;2022-07-22T12:00:08;9.38;;;2.78;;
48209;SDS011;33999;52.252;9.616;2022-07-22T12:03:12;8.85;;;2.60;;
48209;SDS011;33999;52.252;9.616;2022-07-22T12:06:19;6.18;;;2.30;;
48209;SDS011;33999;52.252;9.616;2022-07-22T12:09:33;7.78;;;2.30;;
48209;SDS011;33999;52.252;9.616;2022-07-22T12:12:42;8.98;;;2.63;;
48209;SDS011;33999;52.252;9.616;2022-07-22T12:15:44;6.55;;;2.40;;
48209;SDS011;33999;52.252;9.616;2022-07-22T12:19:31;6.63;;;2.38;;
48209;SDS011;33999;52.252;9.616;2022-07-22T12:22:21;7.40;;;2.50;;
48209;SDS011;33999;52.252;9.616;2022-07-22T12:25:24;4.85;;;2.30;;
48209;SDS011;33999;52.252;9.616;2022-07-22T12:28:31;9.50;;;2.60;;
48209;SDS011;33999;52.252;9.616;2022-07-22T12:31:40;5.70;;;2.30;;
48209;SDS011;33999;52.252;9.616;2022-07-22T12:35:00;6.13;;;2.45;;
48209;SDS011;33999;52.252;9.616;2022-07-22T12:38:34;5.70;;;2.17;;
48209;SDS011;33999;52.252;9.616;2022-07-22T12:41:43;6.88;;;2.40;;
48209;SDS011;33999;52.252;9.616;2022-07-22T12:44:50;7.55;;;2.50;;
48209;SDS011;33999;52.252;9.616;2022-07-22T12:51:02;8.25;;;2.83;;
48209;SDS011;33999;52.252;9.616;2022-07-22T12:54:04;5.65;;;2.70;;
48209;SDS011;33999;52.252;9.616;2022-07-22T12:57:09;5.78;;;2.20;;
48209;SDS011;33999;52.252;9.616;2022-07-22T13:00:17;6.57;;;2.17;;
48209;SDS011;33999;52.252;9.616;2022-07-22T13:03:38;7.25;;;2.50;;
48209;SDS011;33999;52.252;9.616;2022-07-22T13:06:41;5.28;;;2.00;;
48209;SDS011;33999;52.252;9.616;2022-07-22T13:09:45;5.45;;;2.10;;
48209;SDS011;33999;52.252;9.616;2022-07-22T13:12:47;6.55;;;2.45;;
48209;SDS011;33999;52.252;9.616;2022-07-22T13:15:59;5.63;;;2.20;;
48209;SDS011;33999;52.252;9.616;2022-07-22T13:19:13;11.02;;;2.50;;
48209;SDS011;33999;52.252;9.616;2022-07-22T13:25:43;6.68;;;2.30;;
48209;SDS011;33999;52.252;9.616;2022-07-22T13:28:45;6.88;;;2.40;;
48209;SDS011;33999;52.252;9.616;2022-07-22T13:31:46;6.90;;;2.70;;
48209;SDS011;33999;52.252;9.616;2022-07-22T13:35:10;6.65;;;2.70;;
48209;SDS011;33999;52.252;9.616;2022-07-22T13:38:12;8.27;;;2.75;;
48209;SDS011;33999;52.252;9.616;2022-07-22T13:41:16;6.47;;;2.80;;
48209;SDS011;33999;52.252;9.616;2022-07-22T13:44:18;7.22;;;2.72;;
48209;SDS011;33999;52.252;9.616;2022-07-22T13:47:21;7.72;;;3.03;;
48209;SDS011;33999;52.252;9.616;2022-07-22T13:50:24;5.75;;;2.67;;
48209;SDS011;33999;52.252;9.616;2022-07-22T13:53:25;7.28;;;2.72;;
48209;SDS011;33999;52.252;9.616;2022-07-22T13:56:27;8.50;;;3.00;;
48209;SDS011;33999;52.252;9.616;2022-07-22T13:59:29;9.85;;;3.25;;
48209;SDS011;33999;52.252;9.616;2022-07-22T14:02:31;7.13;;;2.88;;
48209;SDS011;33999;52.252;9.616;2022-07-22T14:05:32;7.03;;;2.80;;
48209;SDS011;33999;52.252;9.616;2022-07-22T14:08:34;8.25;;;2.63;;
48209;SDS011;33999;52.252;9.616;2022-07-22T14:11:41;9.90;;;3.30;;
48209;SDS011;33999;52.252;9.616;2022-07-22T14:14:42;8.40;;;2.88;;
48209;SDS011;33999;52.252;9.616;2022-07-22T14:17:44;6.15;;;3.08;;
48209;SDS011;33999;52.252;9.616;2022-07-22T14:20:47;7.57;;;2.92;;
48209;SDS011;33999;52.252;9.616;2022-07-22T14:23:49;8.57;;;3.05;;
48209;SDS011;33999;52.252;9.616;2022-07-22T14:26:50;6.25;;;2.97;;
48209;SDS011;33999;52.252;9.616;2022-07-22T14:29:52;7.25;;;2.85;;
48209;SDS011;33999;52.252;9.616;2022-07-22T14:32:54;11.70;;;3.15;;
48209;SDS011;33999;52.252;9.616;2022-07-22T14:35:56;10.13;;;3.13;;
48209;SDS011;33999;52.252;9.616;2022-07-22T14:38:57;8.38;;;2.75;;
48209;SDS011;33999;52.252;9.616;2022-07-22T14:41:59;7.95;;;3.03;;
48209;SDS011;33999;52.252;9.616;2022-07-22T14:45:01;8.18;;;3.20;;
48209;SDS011;33999;52.252;9.616;2022-07-22T14:48:09;7.13;;;3.00;;
48209;SDS011;33999;52.252;9.616;2022-07-22T14:51:11;7.82;;;3.08;;
48209;SDS011;33999;52.252;9.616;2022-07-22T14:54:13;10.60;;;3.38;;
48209;SDS011;33999;52.252;9.616;2022-07-22T14:57:15;7.55;;;3.13;;
48209;SDS011;33999;52.252;9.616;2022-07-22T15:00:16;8.98;;;3.25;;
48209;SDS011;33999;52.252;9.616;2022-07-22T15:03:18;6.20;;;3.20;;
48209;SDS011;33999;52.252;9.616;2022-07-22T15:06:20;8.90;;;3.40;;
48209;SDS011;33999;52.252;9.616;2022-07-22T15:09:22;10.20;;;3.40;;
48209;SDS011;33999;52.252;9.616;2022-07-22T15:12:24;9.02;;;3.45;;
48209;SDS011;33999;52.252;9.616;2022-07-22T15:15:46;8.70;;;3.10;;
48209;SDS011;33999;52.252;9.616;2022-07-22T15:18:48;8.32;;;3.30;;
48209;SDS011;33999;52.252;9.616;2022-07-22T15:21:50;9.85;;;3.28;;
48209;SDS011;33999;52.252;9.616;2022-07-22T15:24:51;7.18;;;3.40;;
48209;SDS011;33999;52.252;9.616;2022-07-22T15:27:54;10.02;;;3.50;;
48209;SDS011;33999;52.252;9.616;2022-07-22T15:31:15;8.98;;;3.60;;
48209;SDS011;33999;52.252;9.616;2022-07-22T15:34:17;10.77;;;3.70;;
48209;SDS011;33999;52.252;9.616;2022-07-22T15:37:19;9.20;;;3.42;;
48209;SDS011;33999;52.252;9.616;2022-07-22T15:40:22;9.88;;;3.67;;
48209;SDS011;33999;52.252;9.616;2022-07-22T15:43:25;8.48;;;3.53;;
48209;SDS011;33999;52.252;9.616;2022-07-22T15:46:30;9.02;;;3.30;;
48209;SDS011;33999;52.252;9.616;2022-07-22T15:49:32;6.97;;;3.25;;
48209;SDS011;33999;52.252;9.616;2022-07-22T15:52:33;6.90;;;3.45;;
48209;SDS011;33999;52.252;9.616;2022-07-22T15:55:35;7.75;;;3.47;;
48209;SDS011;33999;52.252;9.616;2022-07-22T15:58:37;8.90;;;3.90;;
48209;SDS011;33999;52.252;9.616;2022-07-22T16:02:18;9.23;;;3.42;;
48209;SDS011;33999;52.252;9.616;2022-07-22T16:05:20;8.98;;;3.47;;
48209;SDS011;33999;52.252;9.616;2022-07-22T16:08:22;6.70;;;3.40;;
48209;SDS011;33999;52.252;9.616;2022-07-22T16:11:24;8.38;;;3.75;;
48209;SDS011;33999;52.252;9.616;2022-07-22T16:14:26;8.15;;;3.50;;
48209;SDS011;33999;52.252;9.616;2022-07-22T16:17:28;7.57;;;3.40;;
48209;SDS011;33999;52.252;9.616;2022-07-22T16:20:30;9.27;;;3.60;;
48209;SDS011;33999;52.252;9.616;2022-07-22T16:23:32;6.63;;;3.40;;
48209;SDS011;33999;52.252;9.616;2022-07-22T16:26:34;9.52;;;3.50;;
48209;SDS011;33999;52.252;9.616;2022-07-22T16:29:35;7.82;;;3.40;;
48209;SDS011;33999;52.252;9.616;2022-07-22T16:32:38;7.20;;;3.28;;
48209;SDS011;33999;52.252;9.616;2022-07-22T16:35:47;8.68;;;3.00;;
48209;SDS011;33999;52.252;9.616;2022-07-22T16:38:49;9.20;;;3.30;;
48209;SDS011;33999;52.252;9.616;2022-07-22T16:41:52;7.70;;;3.30;;
48209;SDS011;33999;52.252;9.616;2022-07-22T16:45:00;9.50;;;3.50;;
48209;SDS011;33999;52.252;9.616;2022-07-22T16:48:01;9.05;;;3.60;;
48209;SDS011;33999;52.252;9.616;2022-07-22T16:51:03;9.70;;;3.80;;
48209;SDS011;33999;52.252;9.616;2022-07-22T16:54:05;8.70;;;3.00;;
48209;SDS011;33999;52.252;9.616;2022-07-22T16:57:06;10.93;;;3.55;;
48209;SDS011;33999;52.252;9.616;2022-07-22T17:00:08;10.25;;;3.40;;
48209;SDS011;33999;52.252;9.616;2022-07-22T17:03:11;8.57;;;3.20;;
48209;SDS011;33999;52.252;9.616;2022-07-22T17:06:13;10.95;;;3.33;;
48209;SDS011;33999;52.252;9.616;2022-07-22T17:09:14;11.57;;;3.50;;
48209;SDS011;33999;52.252;9.616;2022-07-22T17:12:18;6.95;;;3.10;;
48209;SDS011;33999;52.252;9.616;2022-07-22T17:15:20;8.75;;;3.40;;
48209;SDS011;33999;52.252;9.616;2022-07-22T17:18:22;9.30;;;3.25;;
48209;SDS011;33999;52.252;9.616;2022-07-22T17:21:24;10.82;;;3.20;;
48209;SDS011;33999;52.252;9.616;2022-07-22T17:24:26;7.70;;;3.55;;
48209;SDS011;33999;52.252;9.616;2022-07-22T17:27:27;8.55;;;3.35;;
48209;SDS011;33999;52.252;9.616;2022-07-22T17:30:30;9.25;;;3.33;;
48209;SDS011;33999;52.252;9.616;2022-07-22T17:33:31;9.05;;;3.58;;
48209;SDS011;33999;52.252;9.616;2022-07-22T17:36:33;8.32;;;3.38;;
48209;SDS011;33999;52.252;9.616;2022-07-22T17:39:35;6.03;;;2.97;;
48209;SDS011;33999;52.252;9.616;2022-07-22T17:42:36;7.65;;;3.30;;
48209;SDS011;33999;52.252;9.616;2022-07-22T17:45:38;7.65;;;2.90;;
48209;SDS011;33999;52.252;9.616;2022-07-22T17:48:40;8.07;;;3.13;;
48209;SDS011;33999;52.252;9.616;2022-07-22T17:51:42;7.28;;;2.92;;
48209;SDS011;33999;52.252;9.616;2022-07-22T17:54:44;6.50;;;3.17;;
48209;SDS011;33999;52.252;9.616;2022-07-22T17:57:45;7.90;;;3.03;;
48209;SDS011;33999;52.252;9.616;2022-07-22T18:00:47;8.27;;;3.20;;
48209;SDS011;33999;52.252;9.616;2022-07-22T18:03:49;10.32;;;3.03;;
48209;SDS011;33999;52.252;9.616;2022-07-22T18:06:50;7.65;;;3.10;;
48209;SDS011;33999;52.252;9.616;2022-07-22T18:09:54;6.70;;;3.10;;
48209;SDS011;33999;52.252;9.616;2022-07-22T18:12:56;10.10;;;3.70;;
48209;SDS011;33999;52.252;9.616;2022-07-22T18:15:57;8.98;;;3.60;;
48209;SDS011;33999;52.252;9.616;2022-07-22T18:18:59;8.25;;;3.40;;
48209;SDS011;33999;52.252;9.616;2022-07-22T18:22:02;7.85;;;3.22;;
48209;SDS011;33999;52.252;9.616;2022-07-22T18:25:04;7.15;;;3.33;;
48209;SDS011;33999;52.252;9.616;2022-07-22T18:28:07;6.85;;;3.22;;
48209;SDS011;33999;52.252;9.616;2022-07-22T18:31:10;8.10;;;3.10;;
48209;SDS011;33999;52.252;9.616;2022-07-22T18:34:12;7.60;;;3.30;;
48209;SDS011;33999;52.252;9.616;2022-07-22T18:37:15;8.32;;;3.30;;
48209;SDS011;33999;52.252;9.616;2022-07-22T18:40:18;6.70;;;3.20;;
48209;SDS011;33999;52.252;9.616;2022-07-22T18:43:20;7.45;;;3.10;;
48209;SDS011;33999;52.252;9.616;2022-07-22T18:46:22;6.13;;;3.30;;
48209;SDS011;33999;52.252;9.616;2022-07-22T18:49:23;7.88;;;3.00;;
48209;SDS011;33999;52.252;9.616;2022-07-22T18:52:25;7.00;;;3.60;;
48209;SDS011;33999;52.252;9.616;2022-07-22T18:55:27;8.63;;;3.53;;